Time,TemperatureF,DewpointF,PressureIn,WindDirection,WindDirectionDegrees,WindSpeedMPH,WindSpeedGustMPH,Humidity,HourlyPrecipIn,Conditions,Clouds,dailyrainin,SoftwareType,DateUTC
2013-04-25 00:03:00,38.3,22.2,30.02,SE,136,4.0,6.0,52,0.00,,,0.00,WeatherTracker,2013-04-25 07:03:00,
2013-04-25 00:08:00,38.5,22.4,30.02,SE,136,3.0,5.0,52,0.00,,,0.00,WeatherTracker,2013-04-25 07:08:00,
2013-04-25 00:13:00,38.4,21.9,30.02,SE,136,1.0,5.0,51,0.00,,,0.00,WeatherTracker,2013-04-25 07:13:00,
2013-04-25 00:18:00,37.8,22.2,30.02,SE,137,0.0,4.0,53,0.00,,,0.00,WeatherTracker,2013-04-25 07:18:00,
2013-04-25 00:23:00,37.3,22.2,30.02,SE,137,1.0,4.0,54,0.00,,,0.00,WeatherTracker,2013-04-25 07:23:00,
2013-04-25 00:28:00,36.9,17.6,30.02,SE,137,0.0,0.0,45,0.00,,,0.00,WeatherTracker,2013-04-25 07:28:00,
2013-04-25 00:33:00,36.4,20.5,30.02,SE,136,0.0,1.0,52,0.00,,,0.00,WeatherTracker,2013-04-25 07:33:00,
2013-04-25 00:38:00,36.3,20.4,30.02,SE,137,0.0,1.0,52,0.00,,,0.00,WeatherTracker,2013-04-25 07:38:00,
2013-04-25 00:43:00,36.2,20.7,30.02,SE,136,0.0,1.0,53,0.00,,,0.00,WeatherTracker,2013-04-25 07:43:00,
2013-04-25 00:48:00,36.5,19.2,30.02,SE,137,0.0,0.0,49,0.00,,,0.00,WeatherTracker,2013-04-25 07:48:00,
2013-04-25 00:54:00,36.7,21.2,30.02,SE,136,0.0,0.0,53,0.00,,,0.00,WeatherTracker,2013-04-25 07:54:00,
2013-04-25 00:59:00,36.8,20.4,30.02,SE,136,0.0,0.0,51,0.00,,,0.00,WeatherTracker,2013-04-25 07:59:00,
2013-04-25 01:04:00,36.7,19.8,30.02,SE,136,0.0,0.0,50,0.00,,,0.00,WeatherTracker,2013-04-25 08:04:00,
2013-04-25 01:09:00,36.8,21.3,30.02,SE,137,0.0,0.0,53,0.00,,,0.00,WeatherTracker,2013-04-25 08:09:00,
2013-04-25 01:14:00,36.4,20.0,30.02,SE,137,0.0,0.0,51,0.00,,,0.00,WeatherTracker,2013-04-25 08:14:00,
2013-04-25 01:19:00,36.2,18.4,30.02,SE,137,1.0,2.0,48,0.00,,,0.00,WeatherTracker,2013-04-25 08:19:00,
2013-04-25 01:24:00,35.9,21.8,30.02,SE,136,1.0,2.0,56,0.00,,,0.00,WeatherTracker,2013-04-25 08:24:00,
2013-04-25 01:29:00,35.5,22.6,30.02,SE,136,1.0,2.0,59,0.00,,,0.00,WeatherTracker,2013-04-25 08:29:00,
2013-04-25 01:34:00,35.2,23.9,30.02,SE,136,0.0,2.0,63,0.00,,,0.00,WeatherTracker,2013-04-25 08:34:00,
2013-04-25 01:39:00,34.4,24.2,30.02,SE,137,1.0,3.0,66,0.00,,,0.00,WeatherTracker,2013-04-25 08:39:00,
2013-04-25 01:44:00,33.5,23.7,30.02,SE,137,2.0,3.0,67,0.00,,,0.00,WeatherTracker,2013-04-25 08:44:00,
2013-04-25 01:49:00,33.4,24.7,30.02,SE,137,1.0,3.0,70,0.00,,,0.00,WeatherTracker,2013-04-25 08:49:00,
2013-04-25 01:54:00,32.9,24.2,30.02,SE,138,3.0,3.0,70,0.00,,,0.00,WeatherTracker,2013-04-25 08:54:00,
2013-04-25 01:59:00,33.0,24.3,30.02,SW,215,4.0,4.0,70,0.00,,,0.00,WeatherTracker,2013-04-25 08:59:00,
2013-04-25 02:04:00,32.9,23.5,30.02,SW,215,3.0,5.0,68,0.00,,,0.00,WeatherTracker,2013-04-25 09:04:00,
2013-04-25 02:09:00,32.9,22.4,30.02,SW,215,4.0,5.0,65,0.00,,,0.00,WeatherTracker,2013-04-25 09:09:00,
2013-04-25 02:14:00,34.0,22.7,30.02,SW,215,3.0,5.0,63,0.00,,,0.00,WeatherTracker,2013-04-25 09:14:00,
2013-04-25 02:19:00,34.4,22.4,30.02,SW,215,2.0,4.0,61,0.00,,,0.00,WeatherTracker,2013-04-25 09:19:00,
2013-04-25 02:24:00,35.4,20.4,30.02,SW,215,3.0,4.0,54,0.00,,,0.00,WeatherTracker,2013-04-25 09:24:00,
2013-04-25 02:29:00,36.6,19.7,30.02,SW,215,3.0,4.0,50,0.00,,,0.00,WeatherTracker,2013-04-25 09:29:00,
2013-04-25 02:34:00,37.1,19.7,30.01,SW,215,2.0,4.0,49,0.00,,,0.00,WeatherTracker,2013-04-25 09:34:00,
2013-04-25 02:39:00,37.3,21.3,30.01,SW,215,0.0,3.0,52,0.00,,,0.00,WeatherTracker,2013-04-25 09:39:00,
2013-04-25 02:44:00,36.6,20.2,30.01,SW,215,2.0,3.0,51,0.00,,,0.00,WeatherTracker,2013-04-25 09:44:00,
2013-04-25 02:50:00,35.6,18.8,30.01,SW,215,3.0,3.0,50,0.00,,,0.00,WeatherTracker,2013-04-25 09:50:00,
2013-04-25 02:55:00,35.3,19.0,30.01,SW,215,1.0,3.0,51,0.00,,,0.00,WeatherTracker,2013-04-25 09:55:00,
2013-04-25 03:00:00,35.4,19.1,30.01,SW,215,0.0,3.0,51,0.00,,,0.00,WeatherTracker,2013-04-25 10:00:00,
2013-04-25 03:05:00,35.2,19.4,30.01,SW,215,0.0,2.0,52,0.00,,,0.00,WeatherTracker,2013-04-25 10:05:00,
2013-04-25 03:10:00,34.8,18.5,30.01,SW,214,0.0,0.0,51,0.00,,,0.00,WeatherTracker,2013-04-25 10:10:00,
2013-04-25 03:15:00,34.5,18.7,30.01,SW,214,0.0,0.0,52,0.00,,,0.00,WeatherTracker,2013-04-25 10:15:00,
2013-04-25 03:20:00,34.3,23.4,30.02,SW,214,0.0,1.0,64,0.00,,,0.00,WeatherTracker,2013-04-25 10:20:00,
2013-04-25 03:25:00,33.0,23.6,30.02,SSW,209,1.0,2.0,68,0.00,,,0.00,WeatherTracker,2013-04-25 10:25:00,
2013-04-25 03:30:00,31.9,22.9,30.02,SSW,209,0.0,2.0,69,0.00,,,0.00,WeatherTracker,2013-04-25 10:30:00,
2013-04-25 03:35:00,31.0,21.3,30.02,SSW,209,0.0,1.0,67,0.00,,,0.00,WeatherTracker,2013-04-25 10:35:00,
2013-04-25 03:40:00,30.7,21.4,30.02,SSW,209,0.0,0.0,68,0.00,,,0.00,WeatherTracker,2013-04-25 10:40:00,
2013-04-25 03:45:00,30.7,22.4,30.02,SSW,211,2.0,2.0,71,0.00,,,0.00,WeatherTracker,2013-04-25 10:45:00,
2013-04-25 03:50:00,31.1,22.5,30.01,SSW,211,1.0,2.0,70,0.00,,,0.00,WeatherTracker,2013-04-25 10:50:00,
2013-04-25 03:55:00,31.6,22.6,30.01,SSW,211,1.0,2.0,69,0.00,,,0.00,WeatherTracker,2013-04-25 10:55:00,
2013-04-25 04:00:00,32.2,21.0,30.01,SSW,209,2.0,3.0,63,0.00,,,0.00,WeatherTracker,2013-04-25 11:00:00,
2013-04-25 04:05:00,32.6,18.2,30.01,SSW,209,2.0,3.0,55,0.00,,,0.00,WeatherTracker,2013-04-25 11:05:00,
2013-04-25 04:11:00,32.8,17.6,30.02,SSW,209,1.0,3.0,53,0.00,,,0.00,WeatherTracker,2013-04-25 11:11:00,
2013-04-25 04:16:00,33.2,18.8,30.02,SSW,209,0.0,3.0,55,0.00,,,0.00,WeatherTracker,2013-04-25 11:16:00,
2013-04-25 04:21:00,33.5,18.2,30.02,SSW,209,1.0,2.0,53,0.00,,,0.00,WeatherTracker,2013-04-25 11:21:00,
2013-04-25 04:26:00,33.4,19.0,30.02,SSW,209,1.0,2.0,55,0.00,,,0.00,WeatherTracker,2013-04-25 11:26:00,
2013-04-25 04:31:00,33.3,18.0,30.02,SSW,209,0.0,1.0,53,0.00,,,0.00,WeatherTracker,2013-04-25 11:31:00,
2013-04-25 04:36:00,33.1,19.5,30.02,SSW,209,0.0,1.0,57,0.00,,,0.00,WeatherTracker,2013-04-25 11:36:00,
2013-04-25 04:41:00,32.5,19.8,30.02,SSW,209,0.0,1.0,59,0.00,,,0.00,WeatherTracker,2013-04-25 11:41:00,
2013-04-25 04:46:00,31.9,19.2,30.02,SSW,209,0.0,1.0,59,0.00,,,0.00,WeatherTracker,2013-04-25 11:46:00,
2013-04-25 04:51:00,31.5,18.4,30.02,SSW,209,1.0,1.0,58,0.00,,,0.00,WeatherTracker,2013-04-25 11:51:00,
2013-04-25 04:56:00,31.4,17.5,30.02,SSW,209,1.0,2.0,56,0.00,,,0.00,WeatherTracker,2013-04-25 11:56:00,
2013-04-25 05:01:00,32.0,17.3,30.02,SSW,209,0.0,2.0,54,0.00,,,0.00,WeatherTracker,2013-04-25 12:01:00,
2013-04-25 05:06:00,32.4,18.9,30.02,SSW,209,0.0,2.0,57,0.00,,,0.00,WeatherTracker,2013-04-25 12:06:00,
2013-04-25 05:11:00,32.3,18.8,30.02,SSW,209,2.0,2.0,57,0.00,,,0.00,WeatherTracker,2013-04-25 12:11:00,
2013-04-25 05:16:00,32.3,17.5,30.02,SSW,209,1.0,2.0,54,0.00,,,0.00,WeatherTracker,2013-04-25 12:16:00,
2013-04-25 05:21:00,32.3,16.7,30.02,SSW,209,1.0,2.0,52,0.00,,,0.00,WeatherTracker,2013-04-25 12:21:00,
2013-04-25 05:26:00,32.5,16.4,30.02,SSW,209,2.0,2.0,51,0.00,,,0.00,WeatherTracker,2013-04-25 12:26:00,
2013-04-25 05:31:00,33.0,15.9,30.02,SSW,209,2.0,3.0,49,0.00,,,0.00,WeatherTracker,2013-04-25 12:31:00,
2013-04-25 05:36:00,32.9,18.1,30.02,SSW,209,0.0,3.0,54,0.00,,,0.00,WeatherTracker,2013-04-25 12:36:00,
2013-04-25 05:41:00,32.4,18.1,30.02,SSW,209,0.0,3.0,55,0.00,,,0.00,WeatherTracker,2013-04-25 12:41:00,
2013-04-25 05:46:00,31.7,19.0,30.02,SSW,209,0.0,2.0,59,0.00,,,0.00,WeatherTracker,2013-04-25 12:46:00,
2013-04-25 05:51:00,31.0,18.8,30.02,SSW,209,0.0,2.0,60,0.00,,,0.00,WeatherTracker,2013-04-25 12:51:00,
2013-04-25 05:56:00,30.4,17.8,30.02,SSW,209,0.0,1.0,59,0.00,,,0.00,WeatherTracker,2013-04-25 12:56:00,
2013-04-25 06:01:00,30.0,19.7,30.02,SSW,206,1.0,3.0,65,0.00,,,0.00,WeatherTracker,2013-04-25 13:01:00,
2013-04-25 06:07:00,29.7,22.1,30.02,SSW,206,1.0,3.0,73,0.00,,,0.00,WeatherTracker,2013-04-25 13:07:00,
2013-04-25 06:12:00,29.4,22.5,30.02,SSW,206,0.0,3.0,75,0.00,,,0.00,WeatherTracker,2013-04-25 13:12:00,
2013-04-25 06:17:00,29.0,19.1,30.02,SSW,206,0.0,2.0,66,0.00,,,0.00,WeatherTracker,2013-04-25 13:17:00,
2013-04-25 06:22:00,28.7,19.8,30.02,SSW,206,0.0,0.0,69,0.00,,,0.00,WeatherTracker,2013-04-25 13:22:00,
2013-04-25 06:27:00,28.4,20.2,30.03,SSW,206,0.0,0.0,71,0.00,,,0.00,WeatherTracker,2013-04-25 13:27:00,
2013-04-25 06:32:00,28.2,20.7,30.03,SSW,206,0.0,0.0,73,0.00,,,0.00,WeatherTracker,2013-04-25 13:32:00,
2013-04-25 06:37:00,28.1,19.9,30.03,SSW,207,2.0,0.0,71,0.00,,,0.00,WeatherTracker,2013-04-25 13:37:00,
2013-04-25 06:42:00,28.4,21.2,30.03,SSW,207,2.0,3.0,74,0.00,,,0.00,WeatherTracker,2013-04-25 13:42:00,
2013-04-25 06:47:00,29.0,20.5,30.04,SSW,207,2.0,3.0,70,0.00,,,0.00,WeatherTracker,2013-04-25 13:47:00,
2013-04-25 06:52:00,29.9,20.3,30.04,SSW,207,2.0,3.0,67,0.00,,,0.00,WeatherTracker,2013-04-25 13:52:00,
2013-04-25 06:57:00,30.9,21.9,30.04,SSW,207,1.0,3.0,69,0.00,,,0.00,WeatherTracker,2013-04-25 13:57:00,
2013-04-25 07:02:00,31.9,22.6,30.04,SSW,207,1.0,2.0,68,0.00,,,0.00,WeatherTracker,2013-04-25 14:02:00,
2013-04-25 07:07:00,32.6,23.6,30.04,SSW,207,3.0,3.0,69,0.00,,,0.00,WeatherTracker,2013-04-25 14:07:00,
2013-04-25 07:12:00,33.4,21.0,30.04,SSW,209,3.0,3.0,60,0.00,,,0.00,WeatherTracker,2013-04-25 14:12:00,
2013-04-25 07:17:00,34.3,20.3,30.04,SSW,209,3.0,4.0,56,0.00,,,0.00,WeatherTracker,2013-04-25 14:17:00,
2013-04-25 07:22:00,34.8,24.6,30.04,SSW,207,1.0,4.0,66,0.00,,,0.00,WeatherTracker,2013-04-25 14:22:00,
2013-04-25 07:27:00,35.0,24.4,30.04,SSW,206,0.0,3.0,65,0.00,,,0.00,WeatherTracker,2013-04-25 14:27:00,
2013-04-25 07:32:00,35.2,26.1,30.05,SSW,206,3.0,4.0,69,0.00,,,0.00,WeatherTracker,2013-04-25 14:32:00,
2013-04-25 07:37:00,35.4,25.2,30.05,SSW,205,1.0,4.0,66,0.00,,,0.00,WeatherTracker,2013-04-25 14:37:00,
2013-04-25 07:42:00,35.9,24.2,30.05,SSW,205,0.0,3.0,62,0.00,,,0.00,WeatherTracker,2013-04-25 14:42:00,
2013-04-25 07:47:00,36.6,24.8,30.05,SSW,205,0.0,3.0,62,0.00,,,0.00,WeatherTracker,2013-04-25 14:47:00,
2013-04-25 07:52:00,37.5,24.5,30.05,SSW,205,0.0,1.0,59,0.00,,,0.00,WeatherTracker,2013-04-25 14:52:00,
2013-04-25 07:57:00,38.1,25.1,30.05,SSW,206,0.0,0.0,59,0.00,,,0.00,WeatherTracker,2013-04-25 14:57:00,
2013-04-25 08:02:00,39.3,25.8,30.05,SSW,206,0.0,1.0,58,0.00,,,0.00,WeatherTracker,2013-04-25 15:02:00,
2013-04-25 08:07:00,39.8,26.7,30.05,SSW,207,0.0,2.0,59,0.00,,,0.00,WeatherTracker,2013-04-25 15:07:00,
2013-04-25 08:13:00,40.2,27.4,30.05,SSW,209,0.0,2.0,60,0.00,,,0.00,WeatherTracker,2013-04-25 15:13:00,
2013-04-25 08:18:00,40.9,26.9,30.04,SSW,209,0.0,2.0,57,0.00,,,0.00,WeatherTracker,2013-04-25 15:18:00,
2013-04-25 08:23:00,41.7,27.6,30.05,SSW,209,1.0,2.0,57,0.00,,,0.00,WeatherTracker,2013-04-25 15:23:00,
2013-04-25 08:28:00,42.1,27.1,30.05,SSW,209,0.0,2.0,55,0.00,,,0.00,WeatherTracker,2013-04-25 15:28:00,
2013-04-25 08:33:00,43.0,26.6,30.05,SSW,211,3.0,3.0,52,0.00,,,0.00,WeatherTracker,2013-04-25 15:33:00,
2013-04-25 08:38:00,43.7,27.2,30.05,SSW,213,1.0,3.0,52,0.00,,,0.00,WeatherTracker,2013-04-25 15:38:00,
2013-04-25 08:43:00,44.2,27.2,30.05,SW,215,1.0,3.0,51,0.00,,,0.00,WeatherTracker,2013-04-25 15:43:00,
2013-04-25 08:48:00,44.9,27.4,30.05,SW,215,3.0,3.0,50,0.00,,,0.00,WeatherTracker,2013-04-25 15:48:00,
2013-04-25 08:53:00,45.2,27.7,30.05,SW,216,4.0,4.0,50,0.00,,,0.00,WeatherTracker,2013-04-25 15:53:00,
2013-04-25 08:58:00,45.6,25.0,30.05,SW,217,3.0,4.0,44,0.00,,,0.00,WeatherTracker,2013-04-25 15:58:00,
2013-04-25 09:03:00,46.1,24.9,30.05,WSW,257,3.0,5.0,43,0.00,,,0.00,WeatherTracker,2013-04-25 16:03:00,
2013-04-25 09:08:00,46.8,22.5,30.04,WSW,257,4.0,5.0,38,0.00,,,0.00,WeatherTracker,2013-04-25 16:08:00,
2013-04-25 09:13:00,47.5,23.2,30.04,WSW,257,1.0,4.0,38,0.00,,,0.00,WeatherTracker,2013-04-25 16:13:00,
2013-04-25 09:18:00,48.3,24.5,30.05,WSW,257,0.0,4.0,39,0.00,,,0.00,WeatherTracker,2013-04-25 16:18:00,
2013-04-25 09:23:00,48.7,23.6,30.04,West,261,2.0,4.0,37,0.00,,,0.00,WeatherTracker,2013-04-25 16:23:00,
2013-04-25 09:28:00,49.0,22.6,30.04,NW,304,3.0,4.0,35,0.00,,,0.00,WeatherTracker,2013-04-25 16:28:00,
2013-04-25 09:33:00,49.3,22.8,30.04,NW,309,2.0,5.0,35,0.00,,,0.00,WeatherTracker,2013-04-25 16:33:00,
2013-04-25 09:38:00,49.8,24.6,30.04,NW,310,2.0,5.0,37,0.00,,,0.00,WeatherTracker,2013-04-25 16:38:00,
2013-04-25 09:44:00,50.4,22.4,30.04,NW,313,5.0,5.0,33,0.00,,,0.00,WeatherTracker,2013-04-25 16:44:00,
2013-04-25 09:49:00,50.8,23.5,30.04,NW,315,4.0,5.0,34,0.00,,,0.00,WeatherTracker,2013-04-25 16:49:00,
2013-04-25 09:54:00,51.2,25.2,30.05,NW,319,3.0,5.0,36,0.00,,,0.00,WeatherTracker,2013-04-25 16:54:00,
2013-04-25 09:59:00,52.0,27.8,30.04,NW,319,1.0,5.0,39,0.00,,,0.00,WeatherTracker,2013-04-25 16:59:00,
2013-04-25 10:04:00,52.4,23.4,30.04,NNW,327,1.0,5.0,32,0.00,,,0.00,WeatherTracker,2013-04-25 17:04:00,
2013-04-25 10:09:00,52.9,26.7,30.04,NNW,331,3.0,5.0,36,0.00,,,0.00,WeatherTracker,2013-04-25 17:09:00,
2013-04-25 10:14:00,53.6,25.2,30.04,NNW,335,1.0,4.0,33,0.00,,,0.00,WeatherTracker,2013-04-25 17:14:00,
2013-04-25 10:19:00,54.1,25.6,30.04,NNW,341,4.0,4.0,33,0.00,,,0.00,WeatherTracker,2013-04-25 17:19:00,
2013-04-25 10:24:00,54.5,26.0,30.04,North,351,2.0,4.0,33,0.00,,,0.00,WeatherTracker,2013-04-25 17:24:00,
2013-04-25 10:29:00,55.1,27.9,30.04,NNW,348,3.0,6.0,35,0.00,,,0.00,WeatherTracker,2013-04-25 17:29:00,
2013-04-25 10:34:00,55.1,27.9,30.04,North,351,1.0,6.0,35,0.00,,,0.00,WeatherTracker,2013-04-25 17:34:00,
2013-04-25 10:39:00,55.4,29.6,30.04,North,355,1.0,5.0,37,0.00,,,0.00,WeatherTracker,2013-04-25 17:39:00,
2013-04-25 10:44:00,55.9,29.3,30.04,North,351,2.0,5.0,36,0.00,,,0.00,WeatherTracker,2013-04-25 17:44:00,
2013-04-25 10:49:00,56.4,27.7,30.04,North,9,2.0,4.0,33,0.00,,,0.00,WeatherTracker,2013-04-25 17:49:00,
2013-04-25 10:54:00,57.2,27.6,30.04,North,9,2.0,4.0,32,0.00,,,0.00,WeatherTracker,2013-04-25 17:54:00,
2013-04-25 10:59:00,57.6,21.1,30.03,NNE,15,2.0,4.0,24,0.00,,,0.00,WeatherTracker,2013-04-25 17:59:00,
2013-04-25 11:04:00,58.1,29.2,30.03,NNE,15,1.0,4.0,33,0.00,,,0.00,WeatherTracker,2013-04-25 18:04:00,
2013-04-25 11:09:00,59.0,28.4,30.03,NNE,21,0.0,4.0,31,0.00,,,0.00,WeatherTracker,2013-04-25 18:09:00,
2013-04-25 11:14:00,59.2,25.2,30.03,NNE,19,3.0,4.0,27,0.00,,,0.00,WeatherTracker,2013-04-25 18:14:00,
2013-04-25 11:19:00,59.3,27.9,30.03,NNE,20,3.0,5.0,30,0.00,,,0.00,WeatherTracker,2013-04-25 18:19:00,
2013-04-25 11:24:00,59.8,26.6,30.03,NNE,23,2.0,6.0,28,0.00,,,0.00,WeatherTracker,2013-04-25 18:24:00,
2013-04-25 11:29:00,60.3,25.3,30.03,NNE,26,4.0,6.0,26,0.00,,,0.00,WeatherTracker,2013-04-25 18:29:00,
2013-04-25 11:34:00,60.0,22.1,30.03,NE,54,2.0,5.0,23,0.00,,,0.00,WeatherTracker,2013-04-25 18:34:00,
2013-04-25 11:39:00,60.1,25.1,30.02,NE,53,2.0,5.0,26,0.00,,,0.00,WeatherTracker,2013-04-25 18:39:00,
2013-04-25 11:44:00,60.4,26.3,30.02,ENE,58,0.0,5.0,27,0.00,,,0.00,WeatherTracker,2013-04-25 18:44:00,
2013-04-25 11:49:00,61.0,22.9,30.02,NNE,27,1.0,5.0,23,0.00,,,0.00,WeatherTracker,2013-04-25 18:49:00,
2013-04-25 11:54:00,61.3,23.2,30.02,NNE,23,0.0,5.0,23,0.00,,,0.00,WeatherTracker,2013-04-25 18:54:00,
2013-04-25 12:00:00,61.6,24.5,30.01,NNE,25,1.0,5.0,24,0.00,,,0.00,WeatherTracker,2013-04-25 19:00:00,
2013-04-25 12:05:00,62.3,26.0,30.01,NNE,33,3.0,3.0,25,0.00,,,0.00,WeatherTracker,2013-04-25 19:05:00,
2013-04-25 12:10:00,65.3,25.5,30.01,NW,311,3.0,4.0,22,0.00,,,0.00,WeatherTracker,2013-04-25 19:10:00,
2013-04-25 12:15:00,65.0,28.3,30.01,NNE,29,2.0,5.0,25,0.00,,,0.00,WeatherTracker,2013-04-25 19:15:00,
2013-04-25 12:20:00,65.7,24.7,30.00,NNW,344,0.0,5.0,21,0.00,,,0.00,WeatherTracker,2013-04-25 19:20:00,
2013-04-25 12:25:00,66.1,26.2,30.00,NW,326,0.0,4.0,22,0.00,,,0.00,WeatherTracker,2013-04-25 19:25:00,
2013-04-25 12:30:00,66.6,27.6,30.00,NNW,346,0.0,3.0,23,0.00,,,0.00,WeatherTracker,2013-04-25 19:30:00,
2013-04-25 12:35:00,67.6,31.5,30.00,North,355,0.0,5.0,26,0.00,,,0.00,WeatherTracker,2013-04-25 19:35:00,
2013-04-25 12:40:00,68.2,27.9,30.00,North,360,0.0,5.0,22,0.00,,,0.00,WeatherTracker,2013-04-25 19:40:00,
2013-04-25 12:45:00,68.1,28.9,29.99,North,360,0.0,5.0,23,0.00,,,0.00,WeatherTracker,2013-04-25 19:45:00,
2013-04-25 12:50:00,68.6,29.3,29.99,North,360,0.0,3.0,23,0.00,,,0.00,WeatherTracker,2013-04-25 19:50:00,
2013-04-25 12:55:00,69.2,34.7,29.99,WNW,290,3.0,3.0,28,0.00,,,0.00,WeatherTracker,2013-04-25 19:55:00,
2013-04-25 13:00:00,68.3,33.9,29.99,ESE,103,3.0,5.0,28,0.00,,,0.00,WeatherTracker,2013-04-25 20:00:00,
2013-04-25 13:05:00,66.0,30.1,29.99,ESE,103,3.0,6.0,26,0.00,,,0.00,WeatherTracker,2013-04-25 20:05:00,
2013-04-25 13:10:00,65.9,31.9,29.99,East,91,1.0,6.0,28,0.00,,,0.00,WeatherTracker,2013-04-25 20:10:00,
2013-04-25 13:15:00,65.9,31.0,29.98,ESE,107,4.0,5.0,27,0.00,,,0.00,WeatherTracker,2013-04-25 20:15:00,
2013-04-25 13:20:00,66.4,32.3,29.98,NE,51,3.0,5.0,28,0.00,,,0.00,WeatherTracker,2013-04-25 20:20:00,
2013-04-25 13:25:00,68.4,34.0,29.98,NNE,18,0.0,6.0,28,0.00,,,0.00,WeatherTracker,2013-04-25 20:25:00,
2013-04-25 13:30:00,68.5,34.1,29.98,ESE,123,2.0,6.0,28,0.00,,,0.00,WeatherTracker,2013-04-25 20:30:00,
2013-04-25 13:35:00,68.6,35.9,29.98,ESE,111,6.0,6.0,30,0.00,,,0.00,WeatherTracker,2013-04-25 20:35:00,
2013-04-25 13:41:00,67.5,33.2,29.98,SSE,156,0.0,7.0,28,0.00,,,0.00,WeatherTracker,2013-04-25 20:41:00,
2013-04-25 13:46:00,68.3,35.7,29.97,ESE,121,1.0,7.0,30,0.00,,,0.00,WeatherTracker,2013-04-25 20:46:00,
2013-04-25 13:51:00,68.7,35.2,29.97,ESE,118,1.0,5.0,29,0.00,,,0.00,WeatherTracker,2013-04-25 20:51:00,
2013-04-25 13:56:00,68.7,34.3,29.97,ESE,107,0.0,5.0,28,0.00,,,0.00,WeatherTracker,2013-04-25 20:56:00,
2013-04-25 14:01:00,70.1,34.6,29.97,West,279,7.0,7.0,27,0.00,,,0.00,WeatherTracker,2013-04-25 21:01:00,
2013-04-25 14:06:00,69.9,28.2,29.96,WNW,284,7.0,15.0,21,0.00,,,0.00,WeatherTracker,2013-04-25 21:06:00,
2013-04-25 14:11:00,69.8,28.1,29.96,West,272,14.0,16.0,21,0.00,,,0.00,WeatherTracker,2013-04-25 21:11:00,
2013-04-25 14:16:00,69.8,28.1,29.96,West,268,14.0,18.0,21,0.00,,,0.00,WeatherTracker,2013-04-25 21:16:00,
2013-04-25 14:21:00,70.5,30.9,29.96,WSW,257,9.0,18.0,23,0.00,,,0.00,WeatherTracker,2013-04-25 21:21:00,
2013-04-25 14:26:00,70.5,30.9,29.96,West,268,11.0,15.0,23,0.00,,,0.00,WeatherTracker,2013-04-25 21:26:00,
2013-04-25 14:31:00,70.2,29.6,29.96,West,269,10.0,17.0,22,0.00,,,0.00,WeatherTracker,2013-04-25 21:31:00,
2013-04-25 14:36:00,70.5,29.8,29.96,WNW,284,10.0,17.0,22,0.00,,,0.00,WeatherTracker,2013-04-25 21:36:00,
2013-04-25 14:41:00,70.8,30.1,29.96,West,260,12.0,17.0,22,0.00,,,0.00,WeatherTracker,2013-04-25 21:41:00,
2013-04-25 14:46:00,71.0,29.1,29.95,West,273,11.0,17.0,21,0.00,,,0.00,WeatherTracker,2013-04-25 21:46:00,
2013-04-25 14:51:00,70.3,24.8,29.95,West,277,14.0,18.0,18,0.00,,,0.00,WeatherTracker,2013-04-25 21:51:00,
2013-04-25 14:56:00,70.3,26.1,29.95,West,263,7.0,22.0,19,0.00,,,0.00,WeatherTracker,2013-04-25 21:56:00,
2013-04-25 15:01:00,70.8,27.7,29.95,WNW,284,9.0,22.0,20,0.00,,,0.00,WeatherTracker,2013-04-25 22:01:00,
2013-04-25 15:06:00,71.0,29.1,29.95,West,259,10.0,17.0,21,0.00,,,0.00,WeatherTracker,2013-04-25 22:06:00,
2013-04-25 15:11:00,71.0,26.7,29.95,West,279,12.0,17.0,19,0.00,,,0.00,WeatherTracker,2013-04-25 22:11:00,
2013-04-25 15:16:00,70.9,27.8,29.95,West,270,13.0,19.0,20,0.00,,,0.00,WeatherTracker,2013-04-25 22:16:00,
2013-04-25 15:21:00,70.6,27.6,29.95,West,266,12.0,19.0,20,0.00,,,0.00,WeatherTracker,2013-04-25 22:21:00,
2013-04-25 15:26:00,70.6,29.9,29.95,SW,220,12.0,19.0,22,0.00,,,0.00,WeatherTracker,2013-04-25 22:26:00,
2013-04-25 15:31:00,70.7,31.1,29.95,SW,214,8.0,21.0,23,0.00,,,0.00,WeatherTracker,2013-04-25 22:31:00,
2013-04-25 15:36:00,70.9,32.3,29.95,SW,230,12.0,21.0,24,0.00,,,0.00,WeatherTracker,2013-04-25 22:36:00,
2013-04-25 15:41:00,71.0,27.9,29.95,WSW,252,6.0,20.0,20,0.00,,,0.00,WeatherTracker,2013-04-25 22:41:00,
2013-04-25 15:46:00,71.3,26.9,29.95,WSW,245,10.0,20.0,19,0.00,,,0.00,WeatherTracker,2013-04-25 22:46:00,
2013-04-25 15:51:00,70.9,27.8,29.94,West,268,14.0,16.0,20,0.00,,,0.00,WeatherTracker,2013-04-25 22:51:00,
2013-04-25 15:56:00,70.4,26.2,29.94,WSW,253,2.0,17.0,19,0.00,,,0.00,WeatherTracker,2013-04-25 22:56:00,
2013-04-25 16:01:00,71.0,30.2,29.94,SW,226,4.0,17.0,22,0.00,,,0.00,WeatherTracker,2013-04-25 23:01:00,
2013-04-25 16:06:00,71.0,26.7,29.94,SSW,203,4.0,15.0,19,0.00,,,0.00,WeatherTracker,2013-04-25 23:06:00,
2013-04-25 16:12:00,70.4,28.6,29.94,SSE,163,7.0,15.0,21,0.00,,,0.00,WeatherTracker,2013-04-25 23:12:00,
2013-04-25 16:17:00,70.6,27.6,29.94,WNW,291,6.0,17.0,20,0.00,,,0.00,WeatherTracker,2013-04-25 23:17:00,
2013-04-25 16:22:00,70.7,27.7,29.95,WSW,244,7.0,17.0,20,0.00,,,0.00,WeatherTracker,2013-04-25 23:22:00,
2013-04-25 16:27:00,70.4,28.6,29.95,SSW,193,12.0,17.0,21,0.00,,,0.00,WeatherTracker,2013-04-25 23:27:00,
2013-04-25 16:32:00,69.9,28.2,29.94,SSW,198,11.0,17.0,21,0.00,,,0.00,WeatherTracker,2013-04-25 23:32:00,
2013-04-25 16:37:00,70.4,28.6,29.95,SSW,211,4.0,13.0,21,0.00,,,0.00,WeatherTracker,2013-04-25 23:37:00,
2013-04-25 16:42:00,70.4,30.8,29.94,WSW,255,10.0,18.0,23,0.00,,,0.00,WeatherTracker,2013-04-25 23:42:00,
2013-04-25 16:47:00,70.5,28.7,29.95,West,260,11.0,18.0,21,0.00,,,0.00,WeatherTracker,2013-04-25 23:47:00,
2013-04-25 16:52:00,70.2,32.7,29.95,WSW,251,10.0,17.0,25,0.00,,,0.00,WeatherTracker,2013-04-25 23:52:00,
2013-04-25 16:57:00,70.4,32.9,29.95,WSW,237,6.0,17.0,25,0.00,,,0.00,WeatherTracker,2013-04-25 23:57:00,
2013-04-25 17:02:00,70.8,30.1,29.95,WSW,255,9.0,15.0,22,0.00,,,0.00,WeatherTracker,2013-04-26 00:02:00,
2013-04-25 17:07:00,70.5,34.0,29.95,SW,223,9.0,14.0,26,0.00,,,0.00,WeatherTracker,2013-04-26 00:07:00,
2013-04-25 17:12:00,69.9,34.4,29.95,SW,227,6.0,18.0,27,0.00,,,0.00,WeatherTracker,2013-04-26 00:12:00,
2013-04-25 17:17:00,69.5,34.0,29.95,SW,215,6.0,18.0,27,0.00,,,0.00,WeatherTracker,2013-04-26 00:17:00,
2013-04-25 17:22:00,69.4,34.0,29.95,SW,216,10.0,14.0,27,0.00,,,0.00,WeatherTracker,2013-04-26 00:22:00,
2013-04-25 17:27:00,69.0,33.6,29.95,South,182,8.0,16.0,27,0.00,,,0.00,WeatherTracker,2013-04-26 00:27:00,
2013-04-25 17:32:00,68.7,33.4,29.95,SSW,195,12.0,18.0,27,0.00,,,0.00,WeatherTracker,2013-04-26 00:32:00,
2013-04-25 17:37:00,68.7,35.2,29.95,SSW,209,3.0,18.0,29,0.00,,,0.00,WeatherTracker,2013-04-26 00:37:00,
2013-04-25 17:42:00,68.8,35.2,29.95,SW,214,7.0,17.0,29,0.00,,,0.00,WeatherTracker,2013-04-26 00:42:00,
2013-04-25 17:47:00,68.6,35.1,29.95,SSW,198,11.0,15.0,29,0.00,,,0.00,WeatherTracker,2013-04-26 00:47:00,
2013-04-25 17:52:00,68.5,34.1,29.95,SSW,194,6.0,15.0,28,0.00,,,0.00,WeatherTracker,2013-04-26 00:52:00,
2013-04-25 17:57:00,68.5,33.2,29.95,WSW,253,5.0,14.0,27,0.00,,,0.00,WeatherTracker,2013-04-26 00:57:00,
2013-04-25 18:02:00,68.5,35.0,29.95,SSE,166,6.0,12.0,29,0.00,,,0.00,WeatherTracker,2013-04-26 01:02:00,
2013-04-25 18:07:00,68.0,34.6,29.95,SSW,206,3.0,14.0,29,0.00,,,0.00,WeatherTracker,2013-04-26 01:07:00,
2013-04-25 18:12:00,67.6,34.2,29.95,SSW,199,8.0,14.0,29,0.00,,,0.00,WeatherTracker,2013-04-26 01:12:00,
2013-04-25 18:17:00,67.1,33.8,29.96,SSW,207,9.0,13.0,29,0.00,,,0.00,WeatherTracker,2013-04-26 01:17:00,
2013-04-25 18:22:00,66.7,33.4,29.96,SSW,199,14.0,14.0,29,0.00,,,0.00,WeatherTracker,2013-04-26 01:22:00,
2013-04-25 18:27:00,66.3,33.1,29.96,South,187,11.0,14.0,29,0.00,,,0.00,WeatherTracker,2013-04-26 01:27:00,
2013-04-25 18:32:00,66.2,33.8,29.96,SSE,160,6.0,15.0,30,0.00,,,0.00,WeatherTracker,2013-04-26 01:32:00,
2013-04-25 18:38:00,66.0,33.7,29.95,SSE,159,7.0,15.0,30,0.00,,,0.00,WeatherTracker,2013-04-26 01:38:00,
2013-04-25 18:43:00,65.3,32.2,29.96,South,176,15.0,15.0,29,0.00,,,0.00,WeatherTracker,2013-04-26 01:43:00,
2013-04-25 18:48:00,64.5,31.5,29.96,South,182,6.0,15.0,29,0.00,,,0.00,WeatherTracker,2013-04-26 01:48:00,
2013-04-25 18:53:00,64.2,31.3,29.96,SSE,163,6.0,15.0,29,0.00,,,0.00,WeatherTracker,2013-04-26 01:53:00,
2013-04-25 18:58:00,64.0,31.9,29.96,South,187,8.0,14.0,30,0.00,,,0.00,WeatherTracker,2013-04-26 01:58:00,
2013-04-25 19:03:00,63.5,32.3,29.96,SSW,200,3.0,15.0,31,0.00,,,0.00,WeatherTracker,2013-04-26 02:03:00,
2013-04-25 19:08:00,63.3,30.5,29.96,South,190,2.0,15.0,29,0.00,,,0.00,WeatherTracker,2013-04-26 02:08:00,
2013-04-25 19:13:00,62.9,31.0,29.97,SSW,207,5.0,13.0,30,0.00,,,0.00,WeatherTracker,2013-04-26 02:13:00,
2013-04-25 19:18:00,62.8,31.7,29.97,SSW,211,6.0,9.0,31,0.00,,,0.00,WeatherTracker,2013-04-26 02:18:00,
2013-04-25 19:23:00,62.5,30.6,29.97,SSW,206,5.0,8.0,30,0.00,,,0.00,WeatherTracker,2013-04-26 02:23:00,
2013-04-25 19:28:00,62.5,30.6,29.97,SSW,211,5.0,10.0,30,0.00,,,0.00,WeatherTracker,2013-04-26 02:28:00,
2013-04-25 19:33:00,62.6,30.7,29.97,West,269,13.0,13.0,30,0.00,,,0.00,WeatherTracker,2013-04-26 02:33:00,
2013-04-25 19:38:00,62.7,30.0,29.97,WNW,285,8.0,17.0,29,0.00,,,0.00,WeatherTracker,2013-04-26 02:38:00,
2013-04-25 19:43:00,62.6,29.0,29.98,West,278,13.0,17.0,28,0.00,,,0.00,WeatherTracker,2013-04-26 02:43:00,
2013-04-25 19:48:00,61.7,29.1,29.98,West,271,8.0,14.0,29,0.00,,,0.00,WeatherTracker,2013-04-26 02:48:00,
2013-04-25 19:53:00,61.6,29.0,29.98,West,279,4.0,14.0,29,0.00,,,0.00,WeatherTracker,2013-04-26 02:53:00,
2013-04-25 19:58:00,60.9,29.3,29.99,West,279,2.0,11.0,30,0.00,,,0.00,WeatherTracker,2013-04-26 02:58:00,
2013-04-25 20:03:00,60.4,30.4,29.99,SW,217,3.0,9.0,32,0.00,,,0.00,WeatherTracker,2013-04-26 03:03:00,
2013-04-25 20:08:00,59.6,31.2,30.00,SE,143,5.0,6.0,34,0.00,,,0.00,WeatherTracker,2013-04-26 03:08:00,
2013-04-25 20:13:00,58.1,33.3,30.00,SE,142,3.0,5.0,39,0.00,,,0.00,WeatherTracker,2013-04-26 03:13:00,
2013-04-25 20:18:00,57.0,33.5,30.00,SE,142,1.0,5.0,41,0.00,,,0.00,WeatherTracker,2013-04-26 03:18:00,
2013-04-25 20:23:00,56.4,32.4,30.00,SSE,154,0.0,5.0,40,0.00,,,0.00,WeatherTracker,2013-04-26 03:23:00,
2013-04-25 20:28:00,55.5,32.8,30.01,North,360,3.0,5.0,42,0.00,,,0.00,WeatherTracker,2013-04-26 03:28:00,
2013-04-25 20:33:00,55.1,31.8,30.01,SSE,159,9.0,9.0,41,0.00,,,0.00,WeatherTracker,2013-04-26 03:33:00,
2013-04-25 20:38:00,56.8,31.5,30.02,SSE,165,4.0,11.0,38,0.00,,,0.00,WeatherTracker,2013-04-26 03:38:00,
2013-04-25 20:43:00,56.9,32.2,30.02,SE,132,4.0,11.0,39,0.00,,,0.00,WeatherTracker,2013-04-26 03:43:00,
2013-04-25 20:48:00,55.8,32.5,30.03,SE,134,1.0,11.0,41,0.00,,,0.00,WeatherTracker,2013-04-26 03:48:00,
2013-04-25 20:53:00,55.2,32.5,30.03,SE,137,3.0,6.0,42,0.00,,,0.00,WeatherTracker,2013-04-26 03:53:00,
2013-04-25 20:59:00,53.5,33.2,30.03,South,173,5.0,5.0,46,0.00,,,0.00,WeatherTracker,2013-04-26 03:59:00,
2013-04-25 21:01:00,52.7,32.0,30.03,South,180,3.0,6.0,45,0.00,,,0.00,WeatherTracker,2013-04-26 04:01:00,
2013-04-25 21:02:00,52.6,32.4,30.04,South,181,6.0,6.0,46,0.00,,,0.00,WeatherTracker,2013-04-26 04:02:00,
2013-04-25 21:04:00,52.2,32.1,30.04,South,186,6.0,6.0,46,0.00,,,0.00,WeatherTracker,2013-04-26 04:04:00,
2013-04-25 21:09:00,52.4,31.1,30.04,SSW,192,5.0,7.0,44,0.00,,,0.00,WeatherTracker,2013-04-26 04:09:00,
2013-04-25 21:14:00,52.9,31.0,30.04,SSW,196,5.0,7.0,43,0.00,,,0.00,WeatherTracker,2013-04-26 04:14:00,
2013-04-25 21:19:00,52.7,29.1,30.04,SSW,198,4.0,7.0,40,0.00,,,0.00,WeatherTracker,2013-04-26 04:19:00,
2013-04-25 21:24:00,52.8,29.8,30.05,SSW,198,3.0,7.0,41,0.00,,,0.00,WeatherTracker,2013-04-26 04:24:00,
2013-04-25 21:29:00,52.7,30.3,30.05,SSW,198,2.0,7.0,42,0.00,,,0.00,WeatherTracker,2013-04-26 04:29:00,
2013-04-25 21:34:00,52.4,29.4,30.05,SSW,198,2.0,5.0,41,0.00,,,0.00,WeatherTracker,2013-04-26 04:34:00,
2013-04-25 21:39:00,52.5,29.5,30.05,SSW,198,0.0,5.0,41,0.00,,,0.00,WeatherTracker,2013-04-26 04:39:00,
2013-04-25 21:44:00,52.2,29.8,30.05,SSW,198,4.0,4.0,42,0.00,,,0.00,WeatherTracker,2013-04-26 04:44:00,
2013-04-25 21:49:00,51.4,29.1,30.06,SSW,198,4.0,4.0,42,0.00,,,0.00,WeatherTracker,2013-04-26 04:49:00,
2013-04-25 21:54:00,51.4,30.2,30.06,SSW,201,4.0,5.0,44,0.00,,,0.00,WeatherTracker,2013-04-26 04:54:00,
2013-04-25 21:59:00,50.5,28.8,30.05,SSW,202,4.0,6.0,43,0.00,,,0.00,WeatherTracker,2013-04-26 04:59:00,
2013-04-25 22:05:00,49.9,29.4,30.06,SSW,202,1.0,5.0,45,0.00,,,0.00,WeatherTracker,2013-04-26 05:05:00,
2013-04-25 22:10:00,49.7,28.7,30.05,SSW,201,0.0,5.0,44,0.00,,,0.00,WeatherTracker,2013-04-26 05:10:00,
2013-04-25 22:15:00,49.3,28.9,30.06,SSW,200,0.0,4.0,45,0.00,,,0.00,WeatherTracker,2013-04-26 05:15:00,
2013-04-25 22:20:00,49.0,30.2,30.06,SSW,200,2.0,3.0,48,0.00,,,0.00,WeatherTracker,2013-04-26 05:20:00,
2013-04-25 22:25:00,48.5,29.2,30.06,SSW,200,1.0,2.0,47,0.00,,,0.00,WeatherTracker,2013-04-26 05:25:00,
2013-04-25 22:30:00,48.3,28.5,30.06,SSW,200,1.0,2.0,46,0.00,,,0.00,WeatherTracker,2013-04-26 05:30:00,
2013-04-25 22:35:00,48.1,28.8,30.06,SSW,200,1.0,2.0,47,0.00,,,0.00,WeatherTracker,2013-04-26 05:35:00,
2013-04-25 22:40:00,48.0,29.8,30.06,SSW,200,0.0,1.0,49,0.00,,,0.00,WeatherTracker,2013-04-26 05:40:00,
2013-04-25 22:45:00,47.8,31.0,30.07,SSW,200,0.0,1.0,52,0.00,,,0.00,WeatherTracker,2013-04-26 05:45:00,
2013-04-25 22:50:00,47.6,30.9,30.07,SSW,200,0.0,1.0,52,0.00,,,0.00,WeatherTracker,2013-04-26 05:50:00,
2013-04-25 22:55:00,47.3,32.8,30.07,SSW,200,0.0,1.0,57,0.00,,,0.00,WeatherTracker,2013-04-26 05:55:00,
2013-04-25 23:00:00,46.7,32.7,30.07,SSW,200,0.0,0.0,58,0.00,,,0.00,WeatherTracker,2013-04-26 06:00:00,
2013-04-25 23:05:00,45.6,33.3,30.07,SSW,200,0.0,0.0,62,0.00,,,0.00,WeatherTracker,2013-04-26 06:05:00,
2013-04-25 23:10:00,44.8,33.4,30.07,SSW,200,2.0,2.0,64,0.00,,,0.00,WeatherTracker,2013-04-26 06:10:00,
2013-04-25 23:15:00,43.8,33.2,30.07,SSW,200,0.0,3.0,66,0.00,,,0.00,WeatherTracker,2013-04-26 06:15:00,
2013-04-25 23:20:00,43.3,33.8,30.08,SSW,200,0.0,3.0,69,0.00,,,0.00,WeatherTracker,2013-04-26 06:20:00,
2013-04-25 23:25:00,42.9,30.4,30.08,SSW,202,0.0,4.0,61,0.00,,,0.00,WeatherTracker,2013-04-26 06:25:00,
2013-04-25 23:30:00,43.0,29.2,30.08,SSW,202,4.0,4.0,58,0.00,,,0.00,WeatherTracker,2013-04-26 06:30:00,
2013-04-25 23:35:00,43.8,29.1,30.08,SSW,202,2.0,4.0,56,0.00,,,0.00,WeatherTracker,2013-04-26 06:35:00,
2013-04-25 23:40:00,43.6,31.8,30.08,WNW,300,5.0,5.0,63,0.00,,,0.00,WeatherTracker,2013-04-26 06:40:00,
2013-04-25 23:46:00,43.5,32.5,30.08,WNW,300,0.0,5.0,65,0.00,,,0.00,WeatherTracker,2013-04-26 06:46:00,
2013-04-25 23:51:00,42.9,31.6,30.08,WNW,300,0.0,5.0,64,0.00,,,0.00,WeatherTracker,2013-04-26 06:51:00,
2013-04-25 23:56:00,42.5,31.6,30.08,WNW,300,2.0,2.0,65,0.00,,,0.00,WeatherTracker,2013-04-26 06:56:00,